createdAt,value
2023-03-11T00:00:38.343Z,983.70
2023-03-11T00:01:38.318Z,983.74
2023-03-11T00:02:38.312Z,983.81
2023-03-11T00:03:38.301Z,983.84
2023-03-11T00:04:38.324Z,983.86
2023-03-11T00:05:38.337Z,983.90
2023-03-11T00:06:38.281Z,983.89
2023-03-11T00:07:38.257Z,984.01
2023-03-11T00:08:38.271Z,984.04
2023-03-11T00:09:38.255Z,984.04
2023-03-11T00:10:38.229Z,984.13
2023-03-11T00:11:38.215Z,984.19
2023-03-11T00:12:38.205Z,984.24
2023-03-11T00:13:38.197Z,984.33
2023-03-11T00:14:38.215Z,984.34
2023-03-11T00:15:38.170Z,984.36
2023-03-11T00:16:38.242Z,984.40
2023-03-11T00:17:38.161Z,984.44
2023-03-11T00:18:38.188Z,984.44
2023-03-11T00:19:38.138Z,984.36
2023-03-11T00:20:38.147Z,984.49
2023-03-11T00:21:38.120Z,984.53
2023-03-11T00:22:38.097Z,984.54
2023-03-11T00:23:38.085Z,984.57
2023-03-11T00:24:38.096Z,984.54
2023-03-11T00:25:38.062Z,984.58
2023-03-11T00:26:38.054Z,984.59
2023-03-11T00:27:38.044Z,984.64
2023-03-11T00:28:38.046Z,984.71
2023-03-11T00:29:38.115Z,984.70
2023-03-11T00:30:38.053Z,984.70
2023-03-11T00:31:38.000Z,984.72
2023-03-11T00:32:38.081Z,984.73
2023-03-11T00:33:37.981Z,984.81
2023-03-11T00:34:37.988Z,984.75
2023-03-11T00:35:38.054Z,984.76
2023-03-11T00:36:37.984Z,984.83
2023-03-11T00:37:37.936Z,984.81
2023-03-11T00:38:37.960Z,984.83
2023-03-11T00:39:37.932Z,984.90
2023-03-11T00:40:37.903Z,984.89
2023-03-11T00:41:37.890Z,984.88
2023-03-11T00:42:37.880Z,984.93
2023-03-11T00:43:37.867Z,984.93
2023-03-11T00:44:37.879Z,984.94
2023-03-11T00:45:37.847Z,984.96
2023-03-11T00:46:37.891Z,985.02
2023-03-11T00:47:37.824Z,985.02
2023-03-11T00:48:37.822Z,985.01
2023-03-11T00:49:37.853Z,985.01
2023-03-11T00:50:37.789Z,985.07
2023-03-11T00:51:37.783Z,985.07
2023-03-11T00:52:37.803Z,985.10
2023-03-11T00:53:37.766Z,985.05
2023-03-11T00:54:37.768Z,985.12
2023-03-11T00:55:37.746Z,985.15
2023-03-11T00:56:37.733Z,985.18
2023-03-11T00:57:37.717Z,985.21
2023-03-11T00:58:37.710Z,985.20
2023-03-11T00:59:37.721Z,985.27
2023-03-11T01:00:37.696Z,985.25
2023-03-11T01:01:37.757Z,985.30
2023-03-11T01:02:37.669Z,985.31
2023-03-11T01:03:37.651Z,985.35
2023-03-11T01:04:37.705Z,985.38
2023-03-11T01:05:37.628Z,985.40
2023-03-11T01:06:45.219Z,985.44
2023-03-11T01:07:38.605Z,985.43
2023-03-11T01:08:37.636Z,985.47
2023-03-11T01:09:37.610Z,985.51
2023-03-11T01:10:37.579Z,985.57
2023-03-11T01:11:37.564Z,985.57
2023-03-11T01:12:37.556Z,985.61
2023-03-11T01:13:37.541Z,985.65
2023-03-11T01:14:37.554Z,985.73
2023-03-11T01:15:37.572Z,985.72
2023-03-11T01:16:37.510Z,985.75
2023-03-11T01:17:37.503Z,985.78
2023-03-11T01:18:37.489Z,985.80
2023-03-11T01:19:37.495Z,985.84
2023-03-11T01:20:37.466Z,985.90
2023-03-11T01:21:37.458Z,985.95
2023-03-11T01:22:37.594Z,985.93
2023-03-11T01:23:37.440Z,985.92
2023-03-11T01:24:37.457Z,986.04
2023-03-11T01:25:37.409Z,986.08
2023-03-11T01:26:37.405Z,986.04
2023-03-11T01:27:37.388Z,986.09
2023-03-11T01:28:37.386Z,986.13
2023-03-11T01:29:37.418Z,986.18
2023-03-11T01:30:37.362Z,986.22
2023-03-11T01:31:37.351Z,986.27
2023-03-11T01:32:37.399Z,986.29
2023-03-11T01:33:37.328Z,986.34
2023-03-11T01:34:37.334Z,986.35
2023-03-11T01:35:37.333Z,986.35
2023-03-11T01:36:37.296Z,986.38
2023-03-11T01:37:37.283Z,986.43
2023-03-11T01:38:37.289Z,986.47
2023-03-11T01:39:37.267Z,986.49
2023-03-11T01:40:37.285Z,986.52
2023-03-11T01:41:37.264Z,986.54
2023-03-11T01:42:37.234Z,986.54
2023-03-11T01:43:37.216Z,986.59
2023-03-11T01:44:37.209Z,986.64
2023-03-11T01:45:37.206Z,986.63
2023-03-11T01:46:37.275Z,986.70
2023-03-11T01:47:37.173Z,986.66
2023-03-11T01:48:37.162Z,986.67
2023-03-11T01:49:37.147Z,986.76
2023-03-11T01:50:37.175Z,986.78
2023-03-11T01:51:37.134Z,986.80
2023-03-11T01:52:37.120Z,986.87
2023-03-11T01:53:37.106Z,986.91
2023-03-11T01:54:37.096Z,986.99
2023-03-11T01:55:37.101Z,986.98
2023-03-11T01:56:37.099Z,987.04
2023-03-11T01:57:37.071Z,987.04
2023-03-11T01:58:37.051Z,987.01
2023-03-11T01:59:37.038Z,987.09
2023-03-11T02:00:37.062Z,987.10
2023-03-11T02:01:38.099Z,987.03
2023-03-11T02:02:37.054Z,987.18
2023-03-11T02:03:36.998Z,987.22
2023-03-11T02:04:36.991Z,987.24
2023-03-11T02:05:36.987Z,987.23
2023-03-11T02:06:36.969Z,987.30
2023-03-11T02:07:36.957Z,987.33
2023-03-11T02:08:36.945Z,987.37
2023-03-11T02:09:36.961Z,987.42
2023-03-11T02:10:36.970Z,987.44
2023-03-11T02:11:36.912Z,987.52
2023-03-11T02:12:36.933Z,987.51
2023-03-11T02:13:36.893Z,987.59
2023-03-11T02:14:36.884Z,987.57
2023-03-11T02:15:39.530Z,987.67
2023-03-11T02:16:36.862Z,987.61
2023-03-11T02:17:36.848Z,987.70
2023-03-11T02:18:36.848Z,987.76
2023-03-11T02:19:36.856Z,987.79
2023-03-11T02:20:36.836Z,987.82
2023-03-11T02:21:36.814Z,987.91
2023-03-11T02:22:36.807Z,987.94
2023-03-11T02:23:36.793Z,987.98
2023-03-11T02:24:36.788Z,988.02
2023-03-11T02:25:36.794Z,988.10
2023-03-11T02:26:36.760Z,988.10
2023-03-11T02:27:36.751Z,988.15
2023-03-11T02:28:36.761Z,988.22
2023-03-11T02:29:36.730Z,988.27
2023-03-11T02:30:36.763Z,988.27
2023-03-11T02:31:36.773Z,988.36
2023-03-11T02:32:36.752Z,988.42
2023-03-11T02:33:36.700Z,988.39
2023-03-11T02:34:36.677Z,988.46
2023-03-11T02:35:36.697Z,988.48
2023-03-11T02:36:36.663Z,988.52
2023-03-11T02:37:36.641Z,988.51
2023-03-11T02:38:36.632Z,988.58
2023-03-11T02:39:36.643Z,988.63
2023-03-11T02:40:36.631Z,988.61
2023-03-11T02:41:36.604Z,988.70
2023-03-11T02:42:36.591Z,988.63
2023-03-11T02:43:36.603Z,988.77
2023-03-11T02:44:36.584Z,988.85
2023-03-11T02:45:36.568Z,988.77
2023-03-11T02:46:36.560Z,988.81
2023-03-11T02:47:36.537Z,988.91
2023-03-11T02:48:36.531Z,988.89
2023-03-11T02:49:36.514Z,988.96
2023-03-11T02:50:36.529Z,989.06
2023-03-11T02:51:36.492Z,989.17
2023-03-11T02:52:36.481Z,989.19
2023-03-11T02:53:36.469Z,989.15
2023-03-11T02:54:36.469Z,989.27
2023-03-11T02:55:36.460Z,989.27
2023-03-11T02:56:36.440Z,989.29
2023-03-11T02:57:36.431Z,989.31
2023-03-11T02:58:36.415Z,989.36
2023-03-11T02:59:36.407Z,989.45
2023-03-11T03:00:36.493Z,989.50
2023-03-11T03:01:36.384Z,989.45
2023-03-11T03:02:36.377Z,989.46
2023-03-11T03:03:36.360Z,989.52
2023-03-11T03:04:36.437Z,989.53
2023-03-11T03:05:36.353Z,989.56
2023-03-11T03:06:36.326Z,989.60
2023-03-11T03:07:36.327Z,989.60
2023-03-11T03:08:36.308Z,989.63
2023-03-11T03:09:36.295Z,989.70
2023-03-11T03:10:36.301Z,989.71
2023-03-11T03:11:36.285Z,989.72
2023-03-11T03:12:36.271Z,989.79
2023-03-11T03:13:36.261Z,989.79
2023-03-11T03:14:36.248Z,989.89
2023-03-11T03:15:36.242Z,989.79
2023-03-11T03:16:36.278Z,989.94
2023-03-11T03:17:36.293Z,989.96
2023-03-11T03:18:36.208Z,990.02
2023-03-11T03:19:36.187Z,990.11
2023-03-11T03:20:36.206Z,990.09
2023-03-11T03:21:36.166Z,990.13
2023-03-11T03:22:36.154Z,990.23
2023-03-11T03:23:36.146Z,990.29
2023-03-11T03:24:36.140Z,990.29
2023-03-11T03:25:36.141Z,990.31
2023-03-11T03:26:36.115Z,990.36
2023-03-11T03:27:36.100Z,990.31
2023-03-11T03:28:36.092Z,990.48
2023-03-11T03:29:36.081Z,990.44
2023-03-11T03:30:36.096Z,990.51
2023-03-11T03:31:36.154Z,990.51
2023-03-11T03:32:36.161Z,990.57
2023-03-11T03:33:36.037Z,990.66
2023-03-11T03:34:36.028Z,990.71
2023-03-11T03:35:36.119Z,990.73
2023-03-11T03:36:36.017Z,990.79
2023-03-11T03:37:36.005Z,990.74
2023-03-11T03:38:35.990Z,990.80
2023-03-11T03:39:35.980Z,990.82
2023-03-11T03:40:35.981Z,990.93
2023-03-11T03:41:35.969Z,990.99
2023-03-11T03:42:35.947Z,990.95
2023-03-11T03:43:35.945Z,991.09
2023-03-11T03:44:35.949Z,991.08
2023-03-11T03:45:35.981Z,991.13
2023-03-11T03:46:35.909Z,991.11
2023-03-11T03:47:35.891Z,991.19
2023-03-11T03:48:35.906Z,991.19
2023-03-11T03:49:35.890Z,991.21
2023-03-11T03:50:35.889Z,991.28
2023-03-11T03:51:35.853Z,991.34
2023-03-11T03:52:35.842Z,991.32
2023-03-11T03:53:35.865Z,991.42
2023-03-11T03:54:35.827Z,991.51
2023-03-11T03:55:35.824Z,991.46
2023-03-11T03:56:43.574Z,991.51
2023-03-11T03:57:35.785Z,991.53
2023-03-11T03:58:35.779Z,991.56
2023-03-11T03:59:35.766Z,991.53
2023-03-11T04:00:35.773Z,991.63
2023-03-11T04:01:35.757Z,991.59
2023-03-11T04:02:35.957Z,991.66
2023-03-11T04:03:35.755Z,991.69
2023-03-11T04:04:36.049Z,991.79
2023-03-11T04:05:35.724Z,991.81
2023-03-11T04:06:35.701Z,991.85
2023-03-11T04:07:35.684Z,991.76
2023-03-11T04:08:35.675Z,991.93
2023-03-11T04:09:35.664Z,991.95
2023-03-11T04:10:35.671Z,991.95
2023-03-11T04:11:35.667Z,991.99
2023-03-11T04:12:35.633Z,992.02
2023-03-11T04:13:35.628Z,992.00
2023-03-11T04:14:35.615Z,991.96
2023-03-11T04:15:35.624Z,992.09
2023-03-11T04:16:35.686Z,992.08
2023-03-11T04:17:35.650Z,992.06
2023-03-11T04:18:35.566Z,992.08
2023-03-11T04:19:35.564Z,992.16
2023-03-11T04:20:35.577Z,992.22
2023-03-11T04:21:35.544Z,992.21
2023-03-11T04:22:35.527Z,992.23
2023-03-11T04:23:35.518Z,992.30
2023-03-11T04:24:35.512Z,992.32
2023-03-11T04:25:35.544Z,992.28
2023-03-11T04:26:35.484Z,992.37
2023-03-11T04:27:35.480Z,992.34
2023-03-11T04:28:35.464Z,992.41
2023-03-11T04:29:35.464Z,992.39
2023-03-11T04:30:35.500Z,992.40
2023-03-11T04:31:35.450Z,992.40
2023-03-11T04:32:35.446Z,992.37
2023-03-11T04:33:35.422Z,992.45
2023-03-11T04:34:35.397Z,992.48
2023-03-11T04:35:35.403Z,992.54
2023-03-11T04:36:35.402Z,992.55
2023-03-11T04:37:35.367Z,992.61
2023-03-11T04:38:35.350Z,992.64
2023-03-11T04:39:35.384Z,992.66
2023-03-11T04:40:35.378Z,992.65
2023-03-11T04:41:35.317Z,992.72
2023-03-11T04:42:35.310Z,992.75
2023-03-11T04:43:35.298Z,992.75
2023-03-11T04:44:35.297Z,992.78
2023-03-11T04:45:35.302Z,992.80
2023-03-11T04:46:35.321Z,992.81
2023-03-11T04:47:35.255Z,992.84
2023-03-11T04:48:35.245Z,992.87
2023-03-11T04:49:35.233Z,992.90
2023-03-11T04:50:35.254Z,992.93
2023-03-11T04:51:35.209Z,992.96
2023-03-11T04:52:35.222Z,992.99
2023-03-11T04:53:35.195Z,992.94
2023-03-11T04:54:35.198Z,993.07
2023-03-11T04:55:35.169Z,993.04
2023-03-11T04:56:35.157Z,993.12
2023-03-11T04:57:35.154Z,993.17
2023-03-11T04:58:35.141Z,993.14
2023-03-11T04:59:35.151Z,993.16
2023-03-11T05:00:35.127Z,993.22
2023-03-11T05:01:35.132Z,993.19
2023-03-11T05:02:35.093Z,993.33
2023-03-11T05:03:35.192Z,993.27
2023-03-11T05:04:35.124Z,993.35
2023-03-11T05:05:35.084Z,993.37
2023-03-11T05:06:35.053Z,993.38
2023-03-11T05:07:35.046Z,993.41
2023-03-11T05:08:35.143Z,993.44
2023-03-11T05:09:35.026Z,993.47
2023-03-11T05:10:35.033Z,993.54
2023-03-11T05:11:35.001Z,993.52
2023-03-11T05:12:34.987Z,993.60
2023-03-11T05:13:34.978Z,993.53
2023-03-11T05:14:34.993Z,993.60
2023-03-11T05:15:34.961Z,993.68
2023-03-11T05:16:34.950Z,993.79
2023-03-11T05:17:34.940Z,993.75
2023-03-11T05:18:34.930Z,993.75
2023-03-11T05:19:35.403Z,993.74
2023-03-11T05:20:34.923Z,993.87
2023-03-11T05:21:34.914Z,993.96
2023-03-11T05:22:34.888Z,993.95
2023-03-11T05:23:34.878Z,993.93
2023-03-11T05:24:34.889Z,993.84
2023-03-11T05:25:34.863Z,993.94
2023-03-11T05:26:34.855Z,993.98
2023-03-11T05:27:34.832Z,994.00
2023-03-11T05:28:34.826Z,994.06
2023-03-11T05:29:34.814Z,994.11
2023-03-11T05:30:34.803Z,994.14
2023-03-11T05:31:34.863Z,994.16
2023-03-11T05:32:34.841Z,994.22
2023-03-11T05:33:34.771Z,994.31
2023-03-11T05:34:34.773Z,994.35
2023-03-11T05:35:34.879Z,994.35
2023-03-11T05:36:34.742Z,994.31
2023-03-11T05:37:34.730Z,994.39
2023-03-11T05:38:34.729Z,994.38
2023-03-11T05:39:34.703Z,994.43
2023-03-11T05:40:34.715Z,994.43
2023-03-11T05:41:34.699Z,994.45
2023-03-11T05:42:34.674Z,994.49
2023-03-11T05:43:34.668Z,994.48
2023-03-11T05:44:34.661Z,994.56
2023-03-11T05:45:34.652Z,994.57
2023-03-11T05:46:34.696Z,994.53
2023-03-11T05:47:34.622Z,994.58
2023-03-11T05:48:34.616Z,994.64
2023-03-11T05:49:34.609Z,994.63
2023-03-11T05:50:34.596Z,994.65
2023-03-11T05:51:34.594Z,994.64
2023-03-11T05:52:34.567Z,994.76
2023-03-11T05:53:34.561Z,994.69
2023-03-11T05:54:34.551Z,994.79
2023-03-11T05:55:34.542Z,994.81
2023-03-11T05:56:34.555Z,994.84
2023-03-11T05:57:34.515Z,994.82
2023-03-11T05:58:34.531Z,994.86
2023-03-11T05:59:34.493Z,994.84
2023-03-11T06:00:34.481Z,994.92
2023-03-11T06:01:34.480Z,994.89
2023-03-11T06:02:34.464Z,994.93
2023-03-11T06:03:34.458Z,994.98
2023-03-11T06:04:34.654Z,994.96
2023-03-11T06:05:34.436Z,994.96
2023-03-11T06:06:34.454Z,995.00
2023-03-11T06:07:34.404Z,994.92
2023-03-11T06:08:34.395Z,994.96
2023-03-11T06:09:34.398Z,995.04
2023-03-11T06:10:34.372Z,995.09
2023-03-11T06:11:34.363Z,995.04
2023-03-11T06:12:34.371Z,995.10
2023-03-11T06:13:34.344Z,995.13
2023-03-11T06:14:34.366Z,995.11
2023-03-11T06:15:34.323Z,995.15
2023-03-11T06:16:34.437Z,995.17
2023-03-11T06:17:34.312Z,995.19
2023-03-11T06:18:34.288Z,995.25
2023-03-11T06:19:34.295Z,995.31
2023-03-11T06:20:34.264Z,995.29
2023-03-11T06:21:34.273Z,995.30
2023-03-11T06:22:34.247Z,995.36
2023-03-11T06:23:34.236Z,995.33
2023-03-11T06:24:34.226Z,995.36
2023-03-11T06:25:34.218Z,995.42
2023-03-11T06:26:34.225Z,995.39
2023-03-11T06:27:34.199Z,995.42
2023-03-11T06:28:34.207Z,995.39
2023-03-11T06:29:34.184Z,995.48
2023-03-11T06:30:34.164Z,995.49
2023-03-11T06:31:34.241Z,995.50
2023-03-11T06:32:34.203Z,995.50
2023-03-11T06:33:34.129Z,995.53
2023-03-11T06:34:34.240Z,995.49
2023-03-11T06:35:34.178Z,995.55
2023-03-11T06:36:34.114Z,995.63
2023-03-11T06:37:34.086Z,995.68
2023-03-11T06:38:36.270Z,995.65
2023-03-11T06:39:34.067Z,995.77
2023-03-11T06:40:34.061Z,995.83
2023-03-11T06:41:34.118Z,995.85
2023-03-11T06:42:34.035Z,995.85
2023-03-11T06:43:34.030Z,995.81
2023-03-11T06:44:34.034Z,995.90
2023-03-11T06:45:34.032Z,995.96
2023-03-11T06:46:34.008Z,995.94
2023-03-11T06:47:33.981Z,995.95
2023-03-11T06:48:33.971Z,996.03
2023-03-11T06:49:33.959Z,996.03
2023-03-11T06:50:33.949Z,996.06
2023-03-11T06:51:33.954Z,996.13
2023-03-11T06:52:33.926Z,996.21
2023-03-11T06:53:34.582Z,996.16
2023-03-11T06:54:33.925Z,996.18
2023-03-11T06:55:33.896Z,996.22
2023-03-11T06:56:33.881Z,996.24
2023-03-11T06:57:33.882Z,996.24
2023-03-11T06:58:33.867Z,996.27
2023-03-11T06:59:33.867Z,996.32
2023-03-11T07:00:33.862Z,996.33
2023-03-11T07:01:33.899Z,996.37
2023-03-11T07:02:33.818Z,996.40
2023-03-11T07:03:33.816Z,996.41
2023-03-11T07:04:33.811Z,996.51
2023-03-11T07:05:33.790Z,996.49
2023-03-11T07:06:33.794Z,996.49
2023-03-11T07:07:33.769Z,996.45
2023-03-11T07:08:33.761Z,996.47
2023-03-11T07:09:33.762Z,996.54
2023-03-11T07:10:33.751Z,996.56
2023-03-11T07:11:33.763Z,996.58
2023-03-11T07:12:33.720Z,996.59
2023-03-11T07:13:33.714Z,996.63
2023-03-11T07:14:33.693Z,996.61
2023-03-11T07:15:33.682Z,996.58
2023-03-11T07:16:33.751Z,996.66
2023-03-11T07:17:33.661Z,996.67
2023-03-11T07:18:33.673Z,996.67
2023-03-11T07:19:33.645Z,996.67
2023-03-11T07:20:33.629Z,996.83
2023-03-11T07:21:33.635Z,996.82
2023-03-11T07:22:33.616Z,996.85
2023-03-11T07:23:33.599Z,996.84
2023-03-11T07:24:33.600Z,996.96
2023-03-11T07:25:33.576Z,996.98
2023-03-11T07:26:33.600Z,996.99
2023-03-11T07:27:33.555Z,997.00
2023-03-11T07:28:33.548Z,997.10
2023-03-11T07:29:33.531Z,997.09
2023-03-11T07:30:33.520Z,997.06
2023-03-11T07:31:33.655Z,997.09
2023-03-11T07:32:33.579Z,997.13
2023-03-11T07:33:34.330Z,997.13
2023-03-11T07:34:33.480Z,997.22
2023-03-11T07:35:33.493Z,997.23
2023-03-11T07:36:33.471Z,997.30
2023-03-11T07:37:33.446Z,997.20
2023-03-11T07:38:33.438Z,997.21
2023-03-11T07:39:33.564Z,997.17
2023-03-11T07:40:33.430Z,997.41
2023-03-11T07:41:33.460Z,997.34
2023-03-11T07:42:33.394Z,997.35
2023-03-11T07:43:33.390Z,997.32
2023-03-11T07:44:33.373Z,997.43
2023-03-11T07:45:33.386Z,997.45
2023-03-11T07:46:33.435Z,997.46
2023-03-11T07:47:33.349Z,997.48
2023-03-11T07:48:33.425Z,997.49
2023-03-11T07:49:33.319Z,997.55
2023-03-11T07:50:33.312Z,997.55
2023-03-11T07:51:33.331Z,997.59
2023-03-11T07:52:33.664Z,997.54
2023-03-11T07:53:33.335Z,997.65
2023-03-11T07:54:33.402Z,997.66
2023-03-11T07:55:33.313Z,997.72
2023-03-11T07:56:33.299Z,997.68
2023-03-11T07:57:33.234Z,997.71
2023-03-11T07:58:33.225Z,997.71
2023-03-11T07:59:33.244Z,997.76
2023-03-11T08:00:33.198Z,997.75
2023-03-11T08:01:33.199Z,997.87
2023-03-11T08:02:33.237Z,997.88
2023-03-11T08:03:33.256Z,997.88
2023-03-11T08:04:33.170Z,997.93
2023-03-11T08:05:33.143Z,997.88
2023-03-11T08:06:33.149Z,997.89
2023-03-11T08:07:33.124Z,997.96
2023-03-11T08:08:33.138Z,997.92
2023-03-11T08:09:33.119Z,998.01
2023-03-11T08:10:33.095Z,998.02
2023-03-11T08:11:33.097Z,997.99
2023-03-11T08:12:33.068Z,998.06
2023-03-11T08:13:33.069Z,998.06
2023-03-11T08:14:33.119Z,998.11
2023-03-11T08:15:33.080Z,998.12
2023-03-11T08:16:33.033Z,998.20
2023-03-11T08:17:33.032Z,998.17
2023-03-11T08:18:33.001Z,998.22
2023-03-11T08:19:32.994Z,998.15
2023-03-11T08:20:33.033Z,998.26
2023-03-11T08:21:32.993Z,998.31
2023-03-11T08:22:32.961Z,998.29
2023-03-11T08:23:32.950Z,998.38
2023-03-11T08:24:32.939Z,998.30
2023-03-11T08:25:32.941Z,998.43
2023-03-11T08:26:32.918Z,998.37
2023-03-11T08:27:32.904Z,998.39
2023-03-11T08:28:32.897Z,998.33
2023-03-11T08:29:32.887Z,998.31
2023-03-11T08:30:32.887Z,998.38
2023-03-11T08:31:33.029Z,998.38
2023-03-11T08:32:32.894Z,998.51
2023-03-11T08:33:32.845Z,998.47
2023-03-11T08:34:32.834Z,998.47
2023-03-11T08:35:32.937Z,998.44
2023-03-11T08:36:32.847Z,998.53
2023-03-11T08:37:32.807Z,998.66
2023-03-11T08:38:32.864Z,998.59
2023-03-11T08:39:32.787Z,998.63
2023-03-11T08:40:32.768Z,998.67
2023-03-11T08:41:32.768Z,998.62
2023-03-11T08:42:32.744Z,998.72
2023-03-11T08:43:32.728Z,998.74
2023-03-11T08:44:32.744Z,998.76
2023-03-11T08:45:32.713Z,998.76
2023-03-11T08:46:32.770Z,998.74
2023-03-11T08:47:32.687Z,998.81
2023-03-11T08:48:32.681Z,998.87
2023-03-11T08:49:32.669Z,998.89
2023-03-11T08:50:41.225Z,998.80
2023-03-11T08:51:33.659Z,998.88
2023-03-11T08:52:32.652Z,998.90
2023-03-11T08:53:32.620Z,998.92
2023-03-11T08:54:32.611Z,998.94
2023-03-11T08:55:32.606Z,998.98
2023-03-11T08:56:32.620Z,999.03
2023-03-11T08:57:32.600Z,999.09
2023-03-11T08:58:32.568Z,999.10
2023-03-11T08:59:32.560Z,999.09
2023-03-11T09:00:32.552Z,999.06
2023-03-11T09:01:32.592Z,999.10
2023-03-11T09:02:32.560Z,999.14
2023-03-11T09:03:32.516Z,999.09
2023-03-11T09:04:32.539Z,999.13
2023-03-11T09:05:32.540Z,999.16
2023-03-11T09:06:32.510Z,999.17
2023-03-11T09:07:32.466Z,999.17
2023-03-11T09:08:32.481Z,999.25
2023-03-11T09:09:32.449Z,999.28
2023-03-11T09:10:32.444Z,999.27
2023-03-11T09:11:32.441Z,999.22
2023-03-11T09:12:32.410Z,999.27
2023-03-11T09:13:32.401Z,999.27
2023-03-11T09:14:32.388Z,999.35
2023-03-11T09:15:32.385Z,999.22
2023-03-11T09:16:32.545Z,999.32
2023-03-11T09:17:32.357Z,999.32
2023-03-11T09:18:32.354Z,999.34
2023-03-11T09:19:32.340Z,999.27
2023-03-11T09:20:32.327Z,999.35
2023-03-11T09:21:32.326Z,999.30
2023-03-11T09:22:32.308Z,999.47
2023-03-11T09:23:32.316Z,999.36
2023-03-11T09:24:32.299Z,999.36
2023-03-11T09:25:32.284Z,999.38
2023-03-11T09:26:32.274Z,999.44
2023-03-11T09:27:32.250Z,999.45
2023-03-11T09:28:32.241Z,999.49
2023-03-11T09:29:32.239Z,999.48
2023-03-11T09:30:32.224Z,999.47
2023-03-11T09:31:32.313Z,999.53
2023-03-11T09:32:32.236Z,999.52
2023-03-11T09:33:32.188Z,999.59
2023-03-11T09:34:32.191Z,999.59
2023-03-11T09:35:32.257Z,999.61
2023-03-11T09:36:32.168Z,999.56
2023-03-11T09:37:32.142Z,999.67
2023-03-11T09:38:32.135Z,999.66
2023-03-11T09:39:32.129Z,999.59
2023-03-11T09:40:32.128Z,999.69
2023-03-11T09:41:32.157Z,999.72
2023-03-11T09:42:32.095Z,999.71
2023-03-11T09:43:32.077Z,999.72
2023-03-11T09:44:32.088Z,999.76
2023-03-11T09:45:32.071Z,999.77
2023-03-11T09:46:32.135Z,999.75
2023-03-11T09:47:32.043Z,999.74
2023-03-11T09:48:32.048Z,999.74
2023-03-11T09:49:32.017Z,999.77
2023-03-11T09:50:32.004Z,999.77
2023-03-11T09:51:32.003Z,999.82
2023-03-11T09:52:31.982Z,999.87
2023-03-11T09:53:31.969Z,999.90
2023-03-11T09:54:31.959Z,999.97
2023-03-11T09:55:31.951Z,999.96
2023-03-11T09:56:31.964Z,1000.01
2023-03-11T09:57:31.926Z,999.96
2023-03-11T09:58:31.914Z,1000.05
2023-03-11T09:59:31.940Z,1000.06
2023-03-11T10:00:31.894Z,1000.07
2023-03-11T10:01:31.913Z,1000.05
2023-03-11T10:02:32.049Z,1000.13
2023-03-11T10:03:31.866Z,1000.13
2023-03-11T10:04:31.853Z,1000.18
2023-03-11T10:05:31.839Z,1000.13
2023-03-11T10:06:31.854Z,1000.21
2023-03-11T10:07:31.815Z,1000.24
2023-03-11T10:08:31.809Z,1000.21
2023-03-11T10:09:31.798Z,1000.25
2023-03-11T10:10:31.786Z,1000.24
2023-03-11T10:11:31.792Z,1000.19
2023-03-11T10:12:31.786Z,1000.31
2023-03-11T10:13:31.756Z,1000.26
2023-03-11T10:14:31.744Z,1000.32
2023-03-11T10:15:31.733Z,1000.37
2023-03-11T10:16:31.854Z,1000.38
2023-03-11T10:17:31.718Z,1000.39
2023-03-11T10:18:31.698Z,1000.40
2023-03-11T10:19:31.693Z,1000.38
2023-03-11T10:20:31.679Z,1000.38
2023-03-11T10:21:31.720Z,1000.39
2023-03-11T10:22:31.672Z,1000.42
2023-03-11T10:23:31.657Z,1000.50
2023-03-11T10:24:31.642Z,1000.46
2023-03-11T10:25:31.654Z,1000.44
2023-03-11T10:26:31.653Z,1000.60
2023-03-11T10:27:31.618Z,1000.63
2023-03-11T10:28:31.713Z,1000.54
2023-03-11T10:29:31.648Z,1000.40
2023-03-11T10:30:31.569Z,1000.38
2023-03-11T10:31:31.653Z,1000.34
2023-03-11T10:32:31.562Z,1000.43
2023-03-11T10:33:31.537Z,1000.42
2023-03-11T10:34:31.605Z,1000.48
2023-03-11T10:35:31.516Z,1000.46
2023-03-11T10:36:31.514Z,1000.58
2023-03-11T10:37:47.957Z,1000.61
2023-03-11T10:38:32.479Z,1000.67
2023-03-11T10:39:31.470Z,1000.57
2023-03-11T10:40:31.464Z,1000.59
2023-03-11T10:41:31.457Z,1000.57
2023-03-11T10:42:31.441Z,1000.61
2023-03-11T10:43:31.433Z,1000.60
2023-03-11T10:44:31.441Z,1000.57
2023-03-11T10:45:31.429Z,1000.64
2023-03-11T10:46:31.408Z,1000.65
2023-03-11T10:47:31.381Z,1000.65
2023-03-11T10:48:31.376Z,1000.66
2023-03-11T10:49:31.373Z,1000.68
2023-03-11T10:50:31.352Z,1000.78
2023-03-11T10:51:31.353Z,1000.73
2023-03-11T10:52:31.334Z,1000.74
2023-03-11T10:53:31.318Z,1000.77
2023-03-11T10:54:31.307Z,1000.78
2023-03-11T10:55:31.294Z,1000.84
2023-03-11T10:56:31.294Z,1000.86
2023-03-11T10:57:31.274Z,1000.91
2023-03-11T10:58:31.292Z,1000.84
2023-03-11T10:59:31.254Z,1000.96
2023-03-11T11:00:31.262Z,1000.89
2023-03-11T11:01:31.316Z,1000.90
2023-03-11T11:02:31.272Z,1000.87
2023-03-11T11:03:31.225Z,1000.94
2023-03-11T11:04:31.321Z,1000.92
2023-03-11T11:05:31.187Z,1000.97
2023-03-11T11:06:31.197Z,1001.03
2023-03-11T11:07:31.173Z,1000.95
2023-03-11T11:08:31.159Z,1000.97
2023-03-11T11:09:31.152Z,1001.00
2023-03-11T11:10:31.138Z,1001.03
2023-03-11T11:11:31.137Z,1001.02
2023-03-11T11:12:31.117Z,1001.02
2023-03-11T11:13:31.135Z,1001.05
2023-03-11T11:14:31.095Z,1000.98
2023-03-11T11:15:31.106Z,1000.98
2023-03-11T11:16:31.182Z,1000.99
2023-03-11T11:17:31.056Z,1001.04
2023-03-11T11:18:31.056Z,1001.03
2023-03-11T11:19:31.040Z,1001.03
2023-03-11T11:20:31.027Z,1001.06
2023-03-11T11:21:31.029Z,1001.05
2023-03-11T11:22:31.005Z,1001.10
2023-03-11T11:23:30.994Z,1001.04
2023-03-11T11:24:31.014Z,1001.12
2023-03-11T11:25:31.045Z,1001.11
2023-03-11T11:26:30.981Z,1001.07
2023-03-11T11:27:30.957Z,1001.11
2023-03-11T11:28:30.945Z,1001.11
2023-03-11T11:29:30.929Z,1001.15
2023-03-11T11:30:30.960Z,1001.10
2023-03-11T11:31:30.924Z,1001.14
2023-03-11T11:32:30.963Z,1001.16
2023-03-11T11:33:30.902Z,1001.14
2023-03-11T11:34:30.883Z,1001.19
2023-03-11T11:35:30.875Z,1001.14
2023-03-11T11:36:30.871Z,1001.14
2023-03-11T11:37:30.842Z,1001.14
2023-03-11T11:38:30.830Z,1001.13
2023-03-11T11:39:30.818Z,1001.19
2023-03-11T11:40:30.816Z,1001.09
2023-03-11T11:41:30.810Z,1001.16
2023-03-11T11:42:30.789Z,1001.17
2023-03-11T11:43:30.777Z,1001.20
2023-03-11T11:44:30.765Z,1001.17
2023-03-11T11:45:30.749Z,1001.17
2023-03-11T11:46:30.793Z,1001.15
2023-03-11T11:47:30.727Z,1001.17
2023-03-11T11:48:30.739Z,1001.12
2023-03-11T11:49:30.709Z,1001.11
2023-03-11T11:50:30.697Z,1001.18
2023-03-11T11:51:30.700Z,1001.11
2023-03-11T11:52:30.679Z,1001.17
2023-03-11T11:53:30.672Z,1001.16
2023-03-11T11:54:30.655Z,1001.20
2023-03-11T11:55:30.654Z,1001.18
2023-03-11T11:56:30.656Z,1001.14
2023-03-11T11:57:30.620Z,1001.12
2023-03-11T11:58:30.610Z,1001.18
2023-03-11T11:59:30.607Z,1001.23
2023-03-11T12:00:30.586Z,1001.20
2023-03-11T12:01:30.596Z,1001.22
2023-03-11T12:02:30.563Z,1001.21
2023-03-11T12:03:30.587Z,1001.26
2023-03-11T12:04:30.565Z,1001.21
2023-03-11T12:05:30.582Z,1001.22
2023-03-11T12:06:30.519Z,1001.24
2023-03-11T12:07:30.525Z,1001.25
2023-03-11T12:08:30.498Z,1001.21
2023-03-11T12:09:30.486Z,1001.23
2023-03-11T12:10:30.481Z,1001.25
2023-03-11T12:11:30.524Z,1001.21
2023-03-11T12:12:30.472Z,1001.29
2023-03-11T12:13:30.443Z,1001.23
2023-03-11T12:14:30.442Z,1001.22
2023-03-11T12:15:30.507Z,1001.23
2023-03-11T12:16:30.411Z,1001.29
2023-03-11T12:17:30.428Z,1001.21
2023-03-11T12:18:30.440Z,1001.29
2023-03-11T12:19:30.377Z,1001.31
2023-03-11T12:20:30.392Z,1001.28
2023-03-11T12:21:30.366Z,1001.38
2023-03-11T12:22:30.355Z,1001.45
2023-03-11T12:23:30.331Z,1001.32